sensor_id;sensor_type;location;lat;lon;timestamp;P1;durP1;ratioP1;P2;durP2;ratioP2
51824;SDS011;37879;52.986;6.282;2023-05-17T00:00:52;14.57;;;3.50;;
51824;SDS011;37879;52.986;6.282;2023-05-17T00:03:17;13.43;;;3.28;;
51824;SDS011;37879;52.986;6.282;2023-05-17T00:05:43;10.77;;;3.17;;
51824;SDS011;37879;52.986;6.282;2023-05-17T00:08:09;10.73;;;3.45;;
51824;SDS011;37879;52.986;6.282;2023-05-17T00:10:35;11.45;;;3.42;;
51824;SDS011;37879;52.986;6.282;2023-05-17T00:13:00;11.88;;;3.35;;
51824;SDS011;37879;52.986;6.282;2023-05-17T00:15:27;14.80;;;3.28;;
51824;SDS011;37879;52.986;6.282;2023-05-17T00:17:53;13.48;;;3.50;;
51824;SDS011;37879;52.986;6.282;2023-05-17T00:20:19;11.70;;;3.40;;
51824;SDS011;37879;52.986;6.282;2023-05-17T00:22:45;11.55;;;3.47;;
51824;SDS011;37879;52.986;6.282;2023-05-17T00:25:11;13.48;;;4.10;;
51824;SDS011;37879;52.986;6.282;2023-05-17T00:27:37;10.50;;;3.17;;
51824;SDS011;37879;52.986;6.282;2023-05-17T00:30:02;10.75;;;2.55;;
51824;SDS011;37879;52.986;6.282;2023-05-17T00:32:28;10.93;;;3.28;;
51824;SDS011;37879;52.986;6.282;2023-05-17T00:34:54;14.45;;;3.55;;
51824;SDS011;37879;52.986;6.282;2023-05-17T00:37:20;13.80;;;4.00;;
51824;SDS011;37879;52.986;6.282;2023-05-17T00:39:46;11.77;;;3.00;;
51824;SDS011;37879;52.986;6.282;2023-05-17T00:42:11;13.88;;;2.70;;
51824;SDS011;37879;52.986;6.282;2023-05-17T00:44:38;12.50;;;3.05;;
51824;SDS011;37879;52.986;6.282;2023-05-17T00:47:03;13.35;;;3.55;;
51824;SDS011;37879;52.986;6.282;2023-05-17T00:49:29;14.02;;;3.55;;
51824;SDS011;37879;52.986;6.282;2023-05-17T00:51:55;20.63;;;5.10;;
51824;SDS011;37879;52.986;6.282;2023-05-17T00:54:20;11.02;;;4.00;;
51824;SDS011;37879;52.986;6.282;2023-05-17T00:56:47;14.05;;;3.47;;
51824;SDS011;37879;52.986;6.282;2023-05-17T00:59:13;12.60;;;3.35;;
51824;SDS011;37879;52.986;6.282;2023-05-17T01:01:40;16.70;;;3.15;;
51824;SDS011;37879;52.986;6.282;2023-05-17T01:04:07;10.38;;;2.67;;
51824;SDS011;37879;52.986;6.282;2023-05-17T01:06:34;9.32;;;3.70;;
51824;SDS011;37879;52.986;6.282;2023-05-17T01:09:00;17.77;;;4.10;;
51824;SDS011;37879;52.986;6.282;2023-05-17T01:14:22;13.77;;;3.55;;
51824;SDS011;37879;52.986;6.282;2023-05-17T01:17:15;16.45;;;3.70;;
51824;SDS011;37879;52.986;6.282;2023-05-17T01:22:26;16.00;;;4.28;;
51824;SDS011;37879;52.986;6.282;2023-05-17T01:25:14;12.25;;;3.38;;
51824;SDS011;37879;52.986;6.282;2023-05-17T01:27:53;13.32;;;3.92;;
51824;SDS011;37879;52.986;6.282;2023-05-17T01:30:22;19.58;;;4.05;;
51824;SDS011;37879;52.986;6.282;2023-05-17T01:32:50;9.48;;;2.58;;
51824;SDS011;37879;52.986;6.282;2023-05-17T01:35:19;8.48;;;2.95;;
51824;SDS011;37879;52.986;6.282;2023-05-17T01:37:44;18.00;;;3.03;;
51824;SDS011;37879;52.986;6.282;2023-05-17T01:40:10;19.17;;;4.28;;
51824;SDS011;37879;52.986;6.282;2023-05-17T01:42:36;13.48;;;3.15;;
51824;SDS011;37879;52.986;6.282;2023-05-17T01:48:25;12.35;;;3.78;;
51824;SDS011;37879;52.986;6.282;2023-05-17T01:50:56;15.88;;;3.83;;
51824;SDS011;37879;52.986;6.282;2023-05-17T01:55:59;19.02;;;3.75;;
51824;SDS011;37879;52.986;6.282;2023-05-17T01:58:28;13.45;;;2.88;;
51824;SDS011;37879;52.986;6.282;2023-05-17T02:00:57;9.38;;;3.42;;
51824;SDS011;37879;52.986;6.282;2023-05-17T02:03:26;12.52;;;3.45;;
51824;SDS011;37879;52.986;6.282;2023-05-17T02:05:52;15.70;;;3.70;;
51824;SDS011;37879;52.986;6.282;2023-05-17T02:08:18;15.57;;;3.75;;
51824;SDS011;37879;52.986;6.282;2023-05-17T02:10:43;16.30;;;4.15;;
51824;SDS011;37879;52.986;6.282;2023-05-17T02:13:09;10.77;;;2.95;;
51824;SDS011;37879;52.986;6.282;2023-05-17T02:15:35;15.10;;;3.05;;
51824;SDS011;37879;52.986;6.282;2023-05-17T02:18:01;18.63;;;3.95;;
51824;SDS011;37879;52.986;6.282;2023-05-17T02:20:26;12.30;;;3.35;;
51824;SDS011;37879;52.986;6.282;2023-05-17T02:22:52;10.85;;;3.55;;
51824;SDS011;37879;52.986;6.282;2023-05-17T02:25:17;16.88;;;4.72;;
51824;SDS011;37879;52.986;6.282;2023-05-17T02:27:43;13.57;;;3.30;;
51824;SDS011;37879;52.986;6.282;2023-05-17T02:30:09;11.60;;;3.25;;
51824;SDS011;37879;52.986;6.282;2023-05-17T02:32:35;15.00;;;3.33;;
51824;SDS011;37879;52.986;6.282;2023-05-17T02:35:02;14.15;;;4.72;;
51824;SDS011;37879;52.986;6.282;2023-05-17T02:37:28;16.35;;;2.83;;
51824;SDS011;37879;52.986;6.282;2023-05-17T02:39:54;20.98;;;4.55;;
51824;SDS011;37879;52.986;6.282;2023-05-17T02:42:20;14.35;;;2.97;;
51824;SDS011;37879;52.986;6.282;2023-05-17T02:44:45;11.30;;;2.53;;
51824;SDS011;37879;52.986;6.282;2023-05-17T02:47:12;11.43;;;2.83;;
51824;SDS011;37879;52.986;6.282;2023-05-17T02:49:38;8.05;;;2.50;;
51824;SDS011;37879;52.986;6.282;2023-05-17T02:52:03;17.00;;;4.32;;
51824;SDS011;37879;52.986;6.282;2023-05-17T02:54:29;15.10;;;2.90;;
51824;SDS011;37879;52.986;6.282;2023-05-17T02:56:55;11.57;;;2.42;;
51824;SDS011;37879;52.986;6.282;2023-05-17T02:59:20;13.48;;;2.53;;
51824;SDS011;37879;52.986;6.282;2023-05-17T03:01:46;15.07;;;3.65;;
51824;SDS011;37879;52.986;6.282;2023-05-17T03:04:13;12.40;;;3.00;;
51824;SDS011;37879;52.986;6.282;2023-05-17T03:06:39;20.85;;;4.05;;
51824;SDS011;37879;52.986;6.282;2023-05-17T03:09:05;11.23;;;3.20;;
51824;SDS011;37879;52.986;6.282;2023-05-17T03:11:31;15.80;;;3.13;;
51824;SDS011;37879;52.986;6.282;2023-05-17T03:13:57;11.23;;;2.42;;
51824;SDS011;37879;52.986;6.282;2023-05-17T03:16:23;13.95;;;3.13;;
51824;SDS011;37879;52.986;6.282;2023-05-17T03:18:48;9.65;;;2.67;;
51824;SDS011;37879;52.986;6.282;2023-05-17T03:21:14;9.05;;;2.35;;
51824;SDS011;37879;52.986;6.282;2023-05-17T03:23:39;12.88;;;2.75;;
51824;SDS011;37879;52.986;6.282;2023-05-17T03:26:05;18.63;;;2.75;;
51824;SDS011;37879;52.986;6.282;2023-05-17T03:28:31;11.40;;;2.33;;
51824;SDS011;37879;52.986;6.282;2023-05-17T03:30:56;7.35;;;2.22;;
51824;SDS011;37879;52.986;6.282;2023-05-17T03:33:22;11.60;;;3.45;;
51824;SDS011;37879;52.986;6.282;2023-05-17T03:35:47;12.30;;;2.63;;
51824;SDS011;37879;52.986;6.282;2023-05-17T03:38:13;7.70;;;2.10;;
51824;SDS011;37879;52.986;6.282;2023-05-17T03:40:39;8.55;;;1.88;;
51824;SDS011;37879;52.986;6.282;2023-05-17T03:43:05;11.93;;;2.70;;
51824;SDS011;37879;52.986;6.282;2023-05-17T03:45:31;9.00;;;3.05;;
51824;SDS011;37879;52.986;6.282;2023-05-17T03:47:56;15.70;;;4.32;;
51824;SDS011;37879;52.986;6.282;2023-05-17T03:50:22;9.55;;;2.08;;
51824;SDS011;37879;52.986;6.282;2023-05-17T03:52:48;8.23;;;2.83;;
51824;SDS011;37879;52.986;6.282;2023-05-17T03:55:13;10.77;;;2.13;;
51824;SDS011;37879;52.986;6.282;2023-05-17T03:57:39;13.07;;;2.42;;
51824;SDS011;37879;52.986;6.282;2023-05-17T04:00:05;12.85;;;4.15;;
51824;SDS011;37879;52.986;6.282;2023-05-17T04:02:34;9.70;;;2.30;;
51824;SDS011;37879;52.986;6.282;2023-05-17T04:05:00;10.98;;;2.58;;
51824;SDS011;37879;52.986;6.282;2023-05-17T04:07:26;10.23;;;2.28;;
51824;SDS011;37879;52.986;6.282;2023-05-17T04:09:51;14.25;;;3.10;;
51824;SDS011;37879;52.986;6.282;2023-05-17T04:12:17;7.10;;;1.85;;
51824;SDS011;37879;52.986;6.282;2023-05-17T04:14:43;7.88;;;2.38;;
51824;SDS011;37879;52.986;6.282;2023-05-17T04:17:08;7.05;;;2.30;;
51824;SDS011;37879;52.986;6.282;2023-05-17T04:19:34;11.57;;;1.80;;
51824;SDS011;37879;52.986;6.282;2023-05-17T04:22:00;10.27;;;2.13;;
51824;SDS011;37879;52.986;6.282;2023-05-17T04:24:25;9.35;;;2.70;;
51824;SDS011;37879;52.986;6.282;2023-05-17T04:26:51;5.93;;;2.28;;
51824;SDS011;37879;52.986;6.282;2023-05-17T04:29:17;6.07;;;1.30;;
51824;SDS011;37879;52.986;6.282;2023-05-17T04:31:42;7.70;;;1.52;;
51824;SDS011;37879;52.986;6.282;2023-05-17T04:34:08;12.40;;;2.10;;
51824;SDS011;37879;52.986;6.282;2023-05-17T04:36:33;7.18;;;1.48;;
51824;SDS011;37879;52.986;6.282;2023-05-17T04:38:59;12.60;;;2.00;;
51824;SDS011;37879;52.986;6.282;2023-05-17T04:41:27;5.55;;;1.83;;
51824;SDS011;37879;52.986;6.282;2023-05-17T04:43:53;8.48;;;1.42;;
51824;SDS011;37879;52.986;6.282;2023-05-17T04:46:18;6.90;;;1.90;;
51824;SDS011;37879;52.986;6.282;2023-05-17T04:48:44;12.43;;;2.40;;
51824;SDS011;37879;52.986;6.282;2023-05-17T04:51:11;8.45;;;1.40;;
51824;SDS011;37879;52.986;6.282;2023-05-17T04:53:36;14.38;;;3.28;;
51824;SDS011;37879;52.986;6.282;2023-05-17T04:56:02;6.32;;;1.58;;
51824;SDS011;37879;52.986;6.282;2023-05-17T04:58:28;8.10;;;2.20;;
51824;SDS011;37879;52.986;6.282;2023-05-17T05:00:53;10.15;;;1.95;;
51824;SDS011;37879;52.986;6.282;2023-05-17T05:03:21;9.02;;;1.67;;
51824;SDS011;37879;52.986;6.282;2023-05-17T05:05:47;8.25;;;2.28;;
51824;SDS011;37879;52.986;6.282;2023-05-17T05:08:12;7.55;;;1.80;;
51824;SDS011;37879;52.986;6.282;2023-05-17T05:10:38;8.25;;;2.17;;
51824;SDS011;37879;52.986;6.282;2023-05-17T05:13:04;3.10;;;0.50;;
51824;SDS011;37879;52.986;6.282;2023-05-17T05:15:30;9.40;;;1.75;;
51824;SDS011;37879;52.986;6.282;2023-05-17T05:17:56;5.57;;;1.30;;
51824;SDS011;37879;52.986;6.282;2023-05-17T05:20:22;10.07;;;3.10;;
51824;SDS011;37879;52.986;6.282;2023-05-17T05:22:47;4.68;;;0.93;;
51824;SDS011;37879;52.986;6.282;2023-05-17T05:25:13;6.25;;;1.67;;
51824;SDS011;37879;52.986;6.282;2023-05-17T05:27:39;5.38;;;0.90;;
51824;SDS011;37879;52.986;6.282;2023-05-17T05:30:04;11.55;;;2.70;;
51824;SDS011;37879;52.986;6.282;2023-05-17T05:32:31;2.35;;;1.67;;
51824;SDS011;37879;52.986;6.282;2023-05-17T05:34:56;5.82;;;1.10;;
51824;SDS011;37879;52.986;6.282;2023-05-17T05:37:22;2.83;;;0.60;;
51824;SDS011;37879;52.986;6.282;2023-05-17T05:39:48;5.85;;;1.60;;
51824;SDS011;37879;52.986;6.282;2023-05-17T05:42:13;4.10;;;1.20;;
51824;SDS011;37879;52.986;6.282;2023-05-17T05:44:39;9.48;;;1.92;;
51824;SDS011;37879;52.986;6.282;2023-05-17T05:47:04;6.68;;;1.20;;
51824;SDS011;37879;52.986;6.282;2023-05-17T05:49:30;6.75;;;1.40;;
51824;SDS011;37879;52.986;6.282;2023-05-17T05:51:56;6.55;;;1.67;;
51824;SDS011;37879;52.986;6.282;2023-05-17T05:54:21;8.68;;;1.95;;
51824;SDS011;37879;52.986;6.282;2023-05-17T05:56:47;5.10;;;1.17;;
51824;SDS011;37879;52.986;6.282;2023-05-17T05:59:13;7.28;;;1.77;;
51824;SDS011;37879;52.986;6.282;2023-05-17T06:01:38;7.63;;;1.83;;
51824;SDS011;37879;52.986;6.282;2023-05-17T06:04:05;5.32;;;1.48;;
51824;SDS011;37879;52.986;6.282;2023-05-17T06:06:31;5.35;;;0.60;;
51824;SDS011;37879;52.986;6.282;2023-05-17T06:08:56;5.07;;;1.13;;
51824;SDS011;37879;52.986;6.282;2023-05-17T06:11:22;6.97;;;1.15;;
51824;SDS011;37879;52.986;6.282;2023-05-17T06:13:49;3.97;;;1.02;;
51824;SDS011;37879;52.986;6.282;2023-05-17T06:16:15;5.93;;;1.20;;
51824;SDS011;37879;52.986;6.282;2023-05-17T06:18:40;7.25;;;1.85;;
51824;SDS011;37879;52.986;6.282;2023-05-17T06:21:06;3.67;;;0.85;;
51824;SDS011;37879;52.986;6.282;2023-05-17T06:23:32;11.68;;;1.70;;
51824;SDS011;37879;52.986;6.282;2023-05-17T06:25:57;4.95;;;1.85;;
51824;SDS011;37879;52.986;6.282;2023-05-17T06:28:23;9.07;;;1.95;;
51824;SDS011;37879;52.986;6.282;2023-05-17T06:30:48;7.90;;;1.92;;
51824;SDS011;37879;52.986;6.282;2023-05-17T06:33:14;9.32;;;2.17;;
51824;SDS011;37879;52.986;6.282;2023-05-17T06:35:40;11.05;;;3.55;;
51824;SDS011;37879;52.986;6.282;2023-05-17T06:38:05;9.43;;;2.13;;
51824;SDS011;37879;52.986;6.282;2023-05-17T06:40:31;8.55;;;1.70;;
51824;SDS011;37879;52.986;6.282;2023-05-17T06:42:57;6.03;;;1.52;;
51824;SDS011;37879;52.986;6.282;2023-05-17T06:45:22;12.20;;;1.85;;
51824;SDS011;37879;52.986;6.282;2023-05-17T06:47:48;11.45;;;2.25;;
51824;SDS011;37879;52.986;6.282;2023-05-17T06:50:14;4.78;;;1.98;;
51824;SDS011;37879;52.986;6.282;2023-05-17T06:52:39;9.13;;;2.08;;
51824;SDS011;37879;52.986;6.282;2023-05-17T06:55:05;8.77;;;1.95;;
51824;SDS011;37879;52.986;6.282;2023-05-17T06:57:31;6.75;;;1.67;;
51824;SDS011;37879;52.986;6.282;2023-05-17T06:59:57;13.70;;;3.20;;
51824;SDS011;37879;52.986;6.282;2023-05-17T07:02:23;9.18;;;2.08;;
51824;SDS011;37879;52.986;6.282;2023-05-17T07:04:48;6.45;;;1.48;;
51824;SDS011;37879;52.986;6.282;2023-05-17T07:07:14;11.02;;;2.72;;
51824;SDS011;37879;52.986;6.282;2023-05-17T07:09:40;12.93;;;2.70;;
51824;SDS011;37879;52.986;6.282;2023-05-17T07:12:05;2.35;;;0.60;;
51824;SDS011;37879;52.986;6.282;2023-05-17T07:14:31;7.05;;;1.88;;
51824;SDS011;37879;52.986;6.282;2023-05-17T07:16:57;5.80;;;1.30;;
51824;SDS011;37879;52.986;6.282;2023-05-17T07:19:23;10.07;;;2.33;;
51824;SDS011;37879;52.986;6.282;2023-05-17T07:21:50;4.63;;;1.15;;
51824;SDS011;37879;52.986;6.282;2023-05-17T07:24:16;10.88;;;1.73;;
51824;SDS011;37879;52.986;6.282;2023-05-17T07:26:42;8.90;;;2.63;;
51824;SDS011;37879;52.986;6.282;2023-05-17T07:29:08;11.13;;;2.47;;
51824;SDS011;37879;52.986;6.282;2023-05-17T07:31:33;9.82;;;2.38;;
51824;SDS011;37879;52.986;6.282;2023-05-17T07:33:59;3.55;;;1.10;;
51824;SDS011;37879;52.986;6.282;2023-05-17T07:36:25;11.05;;;3.55;;
51824;SDS011;37879;52.986;6.282;2023-05-17T07:38:54;7.82;;;2.20;;
51824;SDS011;37879;52.986;6.282;2023-05-17T07:41:20;6.72;;;1.85;;
51824;SDS011;37879;52.986;6.282;2023-05-17T07:43:47;7.38;;;1.52;;
51824;SDS011;37879;52.986;6.282;2023-05-17T07:46:13;7.47;;;2.05;;
51824;SDS011;37879;52.986;6.282;2023-05-17T07:48:39;6.72;;;2.00;;
51824;SDS011;37879;52.986;6.282;2023-05-17T07:51:05;7.95;;;1.50;;
51824;SDS011;37879;52.986;6.282;2023-05-17T07:53:30;7.63;;;1.65;;
51824;SDS011;37879;52.986;6.282;2023-05-17T07:55:56;3.90;;;0.93;;
51824;SDS011;37879;52.986;6.282;2023-05-17T07:58:21;8.60;;;2.05;;
51824;SDS011;37879;52.986;6.282;2023-05-17T08:00:47;4.85;;;1.05;;
51824;SDS011;37879;52.986;6.282;2023-05-17T08:03:13;9.63;;;1.88;;
51824;SDS011;37879;52.986;6.282;2023-05-17T08:05:39;5.78;;;1.77;;
51824;SDS011;37879;52.986;6.282;2023-05-17T08:08:04;7.57;;;1.75;;
51824;SDS011;37879;52.986;6.282;2023-05-17T08:10:30;9.85;;;2.15;;
51824;SDS011;37879;52.986;6.282;2023-05-17T08:12:58;5.55;;;1.65;;
51824;SDS011;37879;52.986;6.282;2023-05-17T08:15:24;8.00;;;1.48;;
51824;SDS011;37879;52.986;6.282;2023-05-17T08:17:51;8.48;;;2.63;;
51824;SDS011;37879;52.986;6.282;2023-05-17T08:20:16;9.45;;;2.38;;
51824;SDS011;37879;52.986;6.282;2023-05-17T08:22:42;7.97;;;1.85;;
51824;SDS011;37879;52.986;6.282;2023-05-17T08:25:08;9.20;;;1.60;;
51824;SDS011;37879;52.986;6.282;2023-05-17T08:27:33;7.50;;;2.28;;
51824;SDS011;37879;52.986;6.282;2023-05-17T08:29:59;4.93;;;1.40;;
51824;SDS011;37879;52.986;6.282;2023-05-17T08:32:25;7.32;;;2.05;;
51824;SDS011;37879;52.986;6.282;2023-05-17T08:34:51;8.48;;;1.77;;
51824;SDS011;37879;52.986;6.282;2023-05-17T08:37:17;8.43;;;1.73;;
51824;SDS011;37879;52.986;6.282;2023-05-17T08:39:43;7.38;;;2.78;;
51824;SDS011;37879;52.986;6.282;2023-05-17T08:42:08;13.85;;;2.63;;
51824;SDS011;37879;52.986;6.282;2023-05-17T08:44:34;7.20;;;1.90;;
51824;SDS011;37879;52.986;6.282;2023-05-17T08:47:01;6.70;;;2.17;;
51824;SDS011;37879;52.986;6.282;2023-05-17T08:49:29;8.05;;;1.90;;
51824;SDS011;37879;52.986;6.282;2023-05-17T08:51:58;7.68;;;1.90;;
51824;SDS011;37879;52.986;6.282;2023-05-17T08:54:26;6.03;;;2.10;;
51824;SDS011;37879;52.986;6.282;2023-05-17T08:56:57;9.30;;;2.17;;
51824;SDS011;37879;52.986;6.282;2023-05-17T08:59:27;9.95;;;2.08;;
51824;SDS011;37879;52.986;6.282;2023-05-17T09:01:57;5.55;;;0.77;;
51824;SDS011;37879;52.986;6.282;2023-05-17T09:04:23;10.10;;;3.55;;
51824;SDS011;37879;52.986;6.282;2023-05-17T09:06:49;5.97;;;1.80;;
51824;SDS011;37879;52.986;6.282;2023-05-17T09:09:15;9.25;;;2.28;;
51824;SDS011;37879;52.986;6.282;2023-05-17T09:11:42;10.43;;;2.42;;
51824;SDS011;37879;52.986;6.282;2023-05-17T09:14:08;8.98;;;2.45;;
51824;SDS011;37879;52.986;6.282;2023-05-17T09:16:34;10.55;;;2.47;;
51824;SDS011;37879;52.986;6.282;2023-05-17T09:19:01;6.47;;;1.90;;
51824;SDS011;37879;52.986;6.282;2023-05-17T09:21:29;13.48;;;3.40;;
51824;SDS011;37879;52.986;6.282;2023-05-17T09:23:56;5.45;;;1.88;;
51824;SDS011;37879;52.986;6.282;2023-05-17T09:26:36;9.73;;;2.58;;
51824;SDS011;37879;52.986;6.282;2023-05-17T09:31:35;5.13;;;1.30;;
51824;SDS011;37879;52.986;6.282;2023-05-17T09:34:01;9.45;;;1.83;;
51824;SDS011;37879;52.986;6.282;2023-05-17T09:36:26;6.70;;;1.98;;
51824;SDS011;37879;52.986;6.282;2023-05-17T09:38:56;8.80;;;2.28;;
51824;SDS011;37879;52.986;6.282;2023-05-17T09:41:26;5.50;;;1.38;;
51824;SDS011;37879;52.986;6.282;2023-05-17T09:43:52;6.03;;;1.27;;
51824;SDS011;37879;52.986;6.282;2023-05-17T09:46:25;7.05;;;1.63;;
51824;SDS011;37879;52.986;6.282;2023-05-17T09:48:52;8.85;;;1.67;;
51824;SDS011;37879;52.986;6.282;2023-05-17T09:51:19;6.55;;;1.77;;
51824;SDS011;37879;52.986;6.282;2023-05-17T09:54:05;5.03;;;1.20;;
51824;SDS011;37879;52.986;6.282;2023-05-17T09:56:31;1.25;;;0.63;;
51824;SDS011;37879;52.986;6.282;2023-05-17T09:58:59;3.13;;;0.82;;
51824;SDS011;37879;52.986;6.282;2023-05-17T10:01:27;3.28;;;1.10;;
51824;SDS011;37879;52.986;6.282;2023-05-17T10:03:53;8.18;;;1.90;;
51824;SDS011;37879;52.986;6.282;2023-05-17T10:06:22;9.90;;;2.83;;
51824;SDS011;37879;52.986;6.282;2023-05-17T10:08:51;7.40;;;1.90;;
51824;SDS011;37879;52.986;6.282;2023-05-17T10:11:25;5.55;;;1.30;;
51824;SDS011;37879;52.986;6.282;2023-05-17T10:14:05;7.32;;;1.45;;
51824;SDS011;37879;52.986;6.282;2023-05-17T10:16:52;6.47;;;1.50;;
51824;SDS011;37879;52.986;6.282;2023-05-17T10:19:20;10.65;;;2.42;;
51824;SDS011;37879;52.986;6.282;2023-05-17T10:21:47;6.28;;;1.30;;
51824;SDS011;37879;52.986;6.282;2023-05-17T10:24:15;5.60;;;1.50;;
51824;SDS011;37879;52.986;6.282;2023-05-17T10:26:41;7.90;;;1.83;;
51824;SDS011;37879;52.986;6.282;2023-05-17T10:29:07;6.50;;;2.33;;
51824;SDS011;37879;52.986;6.282;2023-05-17T10:31:33;7.57;;;1.88;;
51824;SDS011;37879;52.986;6.282;2023-05-17T10:34:01;4.70;;;1.40;;
51824;SDS011;37879;52.986;6.282;2023-05-17T10:36:32;7.18;;;1.77;;
51824;SDS011;37879;52.986;6.282;2023-05-17T10:38:58;5.72;;;1.55;;
51824;SDS011;37879;52.986;6.282;2023-05-17T10:41:29;2.38;;;0.55;;
51824;SDS011;37879;52.986;6.282;2023-05-17T10:43:57;2.83;;;0.93;;
51824;SDS011;37879;52.986;6.282;2023-05-17T10:46:24;9.95;;;1.48;;
51824;SDS011;37879;52.986;6.282;2023-05-17T10:48:53;8.98;;;1.67;;
51824;SDS011;37879;52.986;6.282;2023-05-17T10:51:21;9.40;;;2.17;;
51824;SDS011;37879;52.986;6.282;2023-05-17T10:54:03;8.95;;;1.75;;
51824;SDS011;37879;52.986;6.282;2023-05-17T10:56:30;4.53;;;1.25;;
51824;SDS011;37879;52.986;6.282;2023-05-17T10:59:18;7.00;;;1.35;;
51824;SDS011;37879;52.986;6.282;2023-05-17T11:02:04;7.10;;;1.65;;
51824;SDS011;37879;52.986;6.282;2023-05-17T11:04:32;5.20;;;1.05;;
51824;SDS011;37879;52.986;6.282;2023-05-17T11:07:23;4.20;;;1.33;;
51824;SDS011;37879;52.986;6.282;2023-05-17T11:09:54;4.72;;;1.77;;
51824;SDS011;37879;52.986;6.282;2023-05-17T11:12:39;6.72;;;1.27;;
51824;SDS011;37879;52.986;6.282;2023-05-17T11:15:13;7.18;;;1.67;;
51824;SDS011;37879;52.986;6.282;2023-05-17T11:25:19;5.30;;;1.55;;
51824;SDS011;37879;52.986;6.282;2023-05-17T11:27:46;6.90;;;1.73;;
51824;SDS011;37879;52.986;6.282;2023-05-17T11:33:02;6.22;;;1.98;;
51824;SDS011;37879;52.986;6.282;2023-05-17T11:35:37;3.30;;;0.80;;
51824;SDS011;37879;52.986;6.282;2023-05-17T11:40:51;4.35;;;1.42;;
51824;SDS011;37879;52.986;6.282;2023-05-17T11:43:18;6.93;;;1.48;;
51824;SDS011;37879;52.986;6.282;2023-05-17T11:45:50;6.38;;;2.08;;
51824;SDS011;37879;52.986;6.282;2023-05-17T11:48:18;3.22;;;1.67;;
51824;SDS011;37879;52.986;6.282;2023-05-17T11:50:46;8.77;;;1.92;;
51824;SDS011;37879;52.986;6.282;2023-05-17T11:53:14;9.27;;;1.63;;
51824;SDS011;37879;52.986;6.282;2023-05-17T11:55:42;4.95;;;1.33;;
51824;SDS011;37879;52.986;6.282;2023-05-17T11:58:11;7.28;;;1.83;;
51824;SDS011;37879;52.986;6.282;2023-05-17T12:00:38;6.88;;;1.13;;
51824;SDS011;37879;52.986;6.282;2023-05-17T12:05:40;8.13;;;1.55;;
51824;SDS011;37879;52.986;6.282;2023-05-17T12:08:06;7.72;;;2.30;;
51824;SDS011;37879;52.986;6.282;2023-05-17T12:10:32;10.40;;;2.42;;
51824;SDS011;37879;52.986;6.282;2023-05-17T12:12:58;8.27;;;1.70;;
51824;SDS011;37879;52.986;6.282;2023-05-17T12:15:24;17.02;;;3.00;;
51824;SDS011;37879;52.986;6.282;2023-05-17T12:17:52;7.72;;;1.70;;
51824;SDS011;37879;52.986;6.282;2023-05-17T12:20:19;6.55;;;2.03;;
51824;SDS011;37879;52.986;6.282;2023-05-17T12:22:52;7.95;;;1.95;;
51824;SDS011;37879;52.986;6.282;2023-05-17T12:25:21;12.40;;;2.45;;
51824;SDS011;37879;52.986;6.282;2023-05-17T12:27:49;7.55;;;1.30;;
51824;SDS011;37879;52.986;6.282;2023-05-17T12:30:15;6.78;;;1.73;;
51824;SDS011;37879;52.986;6.282;2023-05-17T12:32:41;8.98;;;1.98;;
51824;SDS011;37879;52.986;6.282;2023-05-17T12:35:08;6.40;;;1.50;;
51824;SDS011;37879;52.986;6.282;2023-05-17T12:37:34;4.80;;;1.35;;
51824;SDS011;37879;52.986;6.282;2023-05-17T12:40:00;4.40;;;0.98;;
51824;SDS011;37879;52.986;6.282;2023-05-17T12:42:29;4.97;;;1.95;;
51824;SDS011;37879;52.986;6.282;2023-05-17T12:44:58;6.03;;;1.58;;
51824;SDS011;37879;52.986;6.282;2023-05-17T12:47:24;7.30;;;1.73;;
51824;SDS011;37879;52.986;6.282;2023-05-17T12:49:55;7.78;;;1.65;;
51824;SDS011;37879;52.986;6.282;2023-05-17T12:52:22;10.85;;;1.98;;
51824;SDS011;37879;52.986;6.282;2023-05-17T12:54:48;6.93;;;1.75;;
51824;SDS011;37879;52.986;6.282;2023-05-17T12:57:14;6.70;;;1.60;;
51824;SDS011;37879;52.986;6.282;2023-05-17T12:59:49;9.82;;;1.50;;
51824;SDS011;37879;52.986;6.282;2023-05-17T13:02:18;5.88;;;1.88;;
51824;SDS011;37879;52.986;6.282;2023-05-17T13:04:44;7.28;;;2.05;;
51824;SDS011;37879;52.986;6.282;2023-05-17T13:07:10;4.60;;;1.27;;
51824;SDS011;37879;52.986;6.282;2023-05-17T13:09:45;4.60;;;1.33;;
51824;SDS011;37879;52.986;6.282;2023-05-17T13:12:22;3.85;;;1.13;;
51824;SDS011;37879;52.986;6.282;2023-05-17T13:14:49;7.90;;;1.70;;
51824;SDS011;37879;52.986;6.282;2023-05-17T13:19:50;4.22;;;1.30;;
51824;SDS011;37879;52.986;6.282;2023-05-17T13:22:17;6.97;;;1.63;;
51824;SDS011;37879;52.986;6.282;2023-05-17T13:24:43;6.13;;;1.92;;
51824;SDS011;37879;52.986;6.282;2023-05-17T13:27:10;6.95;;;1.58;;
51824;SDS011;37879;52.986;6.282;2023-05-17T13:29:37;1.83;;;0.63;;
51824;SDS011;37879;52.986;6.282;2023-05-17T13:32:05;6.20;;;1.27;;
51824;SDS011;37879;52.986;6.282;2023-05-17T13:34:32;3.15;;;0.65;;
51824;SDS011;37879;52.986;6.282;2023-05-17T13:36:58;6.07;;;2.28;;
51824;SDS011;37879;52.986;6.282;2023-05-17T13:39:23;8.45;;;1.40;;
51824;SDS011;37879;52.986;6.282;2023-05-17T13:41:49;7.63;;;1.85;;
51824;SDS011;37879;52.986;6.282;2023-05-17T13:44:16;4.00;;;0.80;;
51824;SDS011;37879;52.986;6.282;2023-05-17T13:46:42;4.63;;;1.55;;
51824;SDS011;37879;52.986;6.282;2023-05-17T13:49:07;6.60;;;1.92;;
51824;SDS011;37879;52.986;6.282;2023-05-17T13:51:33;6.03;;;1.80;;
51824;SDS011;37879;52.986;6.282;2023-05-17T13:53:59;8.15;;;2.15;;
51824;SDS011;37879;52.986;6.282;2023-05-17T13:56:25;5.63;;;1.23;;
51824;SDS011;37879;52.986;6.282;2023-05-17T13:58:51;6.95;;;1.52;;
51824;SDS011;37879;52.986;6.282;2023-05-17T14:01:17;3.88;;;1.05;;
51824;SDS011;37879;52.986;6.282;2023-05-17T14:03:43;3.15;;;0.98;;
51824;SDS011;37879;52.986;6.282;2023-05-17T14:06:09;4.57;;;1.15;;
51824;SDS011;37879;52.986;6.282;2023-05-17T14:08:35;4.90;;;1.45;;
51824;SDS011;37879;52.986;6.282;2023-05-17T14:11:00;7.63;;;2.55;;
51824;SDS011;37879;52.986;6.282;2023-05-17T14:13:28;3.78;;;0.93;;
51824;SDS011;37879;52.986;6.282;2023-05-17T14:15:54;4.93;;;0.77;;
51824;SDS011;37879;52.986;6.282;2023-05-17T14:18:20;6.57;;;1.65;;
51824;SDS011;37879;52.986;6.282;2023-05-17T14:20:46;5.22;;;1.25;;
51824;SDS011;37879;52.986;6.282;2023-05-17T14:23:11;12.20;;;2.55;;
51824;SDS011;37879;52.986;6.282;2023-05-17T14:25:37;6.25;;;1.58;;
51824;SDS011;37879;52.986;6.282;2023-05-17T14:28:03;4.20;;;1.58;;
51824;SDS011;37879;52.986;6.282;2023-05-17T14:30:29;5.50;;;1.35;;
51824;SDS011;37879;52.986;6.282;2023-05-17T14:32:55;6.18;;;1.23;;
51824;SDS011;37879;52.986;6.282;2023-05-17T14:35:22;7.15;;;1.85;;
51824;SDS011;37879;52.986;6.282;2023-05-17T14:37:48;3.35;;;1.50;;
51824;SDS011;37879;52.986;6.282;2023-05-17T14:40:14;5.30;;;1.50;;
51824;SDS011;37879;52.986;6.282;2023-05-17T14:42:39;4.60;;;1.58;;
51824;SDS011;37879;52.986;6.282;2023-05-17T14:45:05;4.88;;;1.20;;
51824;SDS011;37879;52.986;6.282;2023-05-17T14:47:32;6.13;;;1.50;;
51824;SDS011;37879;52.986;6.282;2023-05-17T14:49:58;3.38;;;1.15;;
51824;SDS011;37879;52.986;6.282;2023-05-17T14:52:23;6.25;;;1.77;;
51824;SDS011;37879;52.986;6.282;2023-05-17T14:54:49;3.28;;;1.05;;
51824;SDS011;37879;52.986;6.282;2023-05-17T14:57:15;5.72;;;1.55;;
51824;SDS011;37879;52.986;6.282;2023-05-17T14:59:41;5.38;;;1.55;;
51824;SDS011;37879;52.986;6.282;2023-05-17T15:02:08;5.32;;;1.38;;
51824;SDS011;37879;52.986;6.282;2023-05-17T15:04:34;6.28;;;1.95;;
51824;SDS011;37879;52.986;6.282;2023-05-17T15:07:00;6.30;;;1.35;;
51824;SDS011;37879;52.986;6.282;2023-05-17T15:09:26;5.00;;;1.30;;
51824;SDS011;37879;52.986;6.282;2023-05-17T15:11:54;5.13;;;0.98;;
51824;SDS011;37879;52.986;6.282;2023-05-17T15:14:20;4.60;;;1.25;;